Time;durP1;ratioP1;P1;durP2;ratioP2;P2;SDS_P1;SDS_P2;PMS_P1;PMS_P2;Temp;Humidity;BMP_temperature;BMP_pressure;BME280_temperature;BME280_humidity;BME280_pressure;Samples;Min_cycle;Max_cycle;Signal;HPM_P1;HPM_P2
2022/10/02 00:04:32;;;;;;;5.43;3.70;;;;;16.80;99173.00;;;;16588503;28;20238;-48
2022/10/02 00:12:36;;;;;;;7.13;2.77;;;;;16.40;99156.00;;;;16587344;28;20721;-48
2022/10/02 00:20:46;;;;;;;6.03;4.50;;;;;16.30;99170.00;;;;16574399;28;20751;-48
2022/10/02 00:28:52;;;;;;;10.20;4.03;;;;;16.50;99173.00;;;;16581800;28;20222;-48
2022/10/02 00:37:03;;;;;;;7.13;2.93;;;;;16.50;99171.00;;;;16587672;28;20219;-48
2022/10/02 00:45:36;;;;;;;5.10;2.60;;;;;16.80;99180.00;;;;16591852;28;20305;-48
2022/10/02 00:53:49;;;;;;;5.03;2.30;;;;;16.50;99165.00;;;;16577819;28;20646;-48
2022/10/02 01:01:55;;;;;;;3.30;2.40;;;;;16.50;99166.00;;;;16594057;28;20282;-48
2022/10/02 01:09:59;;;;;;;8.57;2.97;;;;;16.80;99174.00;;;;16583579;28;20234;-48
2022/10/02 01:18:02;;;;;;;7.73;3.00;;;;;17.00;99176.00;;;;16581986;28;20575;-48
2022/10/02 01:26:06;;;;;;;4.87;3.20;;;;;16.60;99170.00;;;;16577980;28;20819;-48
2022/10/02 01:34:08;;;;;;;5.20;3.00;;;;;16.60;99171.00;;;;16575518;28;20243;-48
2022/10/02 01:42:12;;;;;;;5.23;3.17;;;;;16.50;99169.00;;;;16588052;28;20581;-48
2022/10/02 01:50:20;;;;;;;5.07;3.80;;;;;16.50;99172.00;;;;16573179;28;20222;-48
2022/10/02 01:58:29;;;;;;;4.53;3.70;;;;;16.40;99180.00;;;;16574439;28;20234;-48
2022/10/02 02:06:37;;;;;;;4.60;3.27;;;;;16.30;99188.00;;;;16583959;28;20715;-48
2022/10/02 02:14:45;;;;;;;5.00;3.70;;;;;16.60;99187.00;;;;16580948;28;20215;-49
2022/10/02 02:22:50;;;;;;;4.63;3.80;;;;;16.80;99210.00;;;;16562433;28;20198;-49
2022/10/02 02:30:56;;;;;;;6.00;3.00;;;;;16.80;99185.00;;;;16582063;28;20277;-49
2022/10/02 02:39:03;;;;;;;5.07;2.63;;;;;16.60;99199.00;;;;16581798;28;20219;-48
2022/10/02 02:47:11;;;;;;;3.63;2.33;;;;;16.90;99185.00;;;;16579557;28;20215;-49
2022/10/02 02:55:17;;;;;;;3.77;2.20;;;;;17.20;99187.00;;;;16561639;28;20218;-49
2022/10/02 03:03:21;;;;;;;4.73;2.30;;;;;16.80;99184.00;;;;16578756;28;20222;-49
2022/10/02 03:11:35;;;;;;;4.20;2.40;;;;;16.50;99203.00;;;;16578203;28;20195;-48
2022/10/02 03:19:44;;;;;;;3.93;2.40;;;;;16.80;99199.00;;;;16570964;28;20316;-48
2022/10/02 03:27:50;;;;;;;5.63;2.47;;;;;17.10;99191.00;;;;16558240;28;20241;-49
2022/10/02 03:35:55;;;;;;;7.20;2.50;;;;;17.20;99196.00;;;;16563862;28;20230;-48
2022/10/02 03:43:57;;;;;;;5.73;2.60;;;;;16.90;99192.00;;;;16566865;28;20242;-48
2022/10/02 03:52:01;;;;;;;4.10;2.57;;;;;17.00;99184.00;;;;16560375;28;20697;-48
2022/10/02 04:00:07;;;;;;;5.37;3.00;;;;;17.10;99180.00;;;;16565583;28;20216;-48
2022/10/02 04:08:16;;;;;;;6.03;3.07;;;;;16.70;99177.00;;;;16576451;28;20705;-48
2022/10/02 04:16:23;;;;;;;4.20;2.60;;;;;16.70;99200.00;;;;16587962;28;20223;-48
2022/10/02 04:24:31;;;;;;;5.87;2.80;;;;;17.10;99197.00;;;;16584724;28;20223;-48
2022/10/02 04:32:35;;;;;;;6.50;3.43;;;;;16.90;99211.00;;;;16584398;28;20192;-48
2022/10/02 04:40:54;;;;;;;5.03;2.80;;;;;15.90;99216.00;;;;16553286;28;20235;-48
2022/10/02 04:49:07;;;;;;;9.97;2.60;;;;;16.80;99211.00;;;;16554654;28;20222;-49
2022/10/02 04:57:35;;;;;;;6.37;2.70;;;;;16.50;99204.00;;;;16564270;28;20265;-49
2022/10/02 05:05:54;;;;;;;4.40;3.00;;;;;16.80;99203.00;;;;16567221;28;20234;-49
2022/10/02 05:14:15;;;;;;;7.90;3.40;;;;;16.80;99191.00;;;;16586940;28;20207;-49
2022/10/02 05:22:45;;;;;;;7.43;2.00;;;;;18.30;99180.00;;;;16582167;28;20211;-49
2022/10/02 05:30:52;;;;;;;2.63;2.40;;;;;17.40;99172.00;;;;16548240;28;20893;-49
2022/10/02 05:39:03;;;;;;;4.60;2.80;;;;;16.80;99188.00;;;;16542008;28;20228;-50
2022/10/02 05:47:12;;;;;;;6.03;3.20;;;;;15.40;99204.00;;;;16546405;28;20219;-48
2022/10/02 05:55:18;;;;;;;2.90;2.50;;;;;15.30;99196.00;;;;16544128;28;20229;-49
2022/10/02 06:03:25;;;;;;;5.23;2.70;;;;;15.20;99214.00;;;;16546785;28;20225;-48
2022/10/02 06:11:30;;;;;;;7.00;3.20;;;;;15.30;99222.00;;;;16548739;28;20713;-48
2022/10/02 06:19:37;;;;;;;4.23;2.80;;;;;15.30;99227.00;;;;16541849;28;20241;-48
2022/10/02 06:27:45;;;;;;;6.20;3.27;;;;;15.40;99222.00;;;;16555031;28;20230;-49
2022/10/02 06:35:59;;;;;;;3.87;3.10;;;;;16.30;99208.00;;;;16538691;28;20250;-48
2022/10/02 06:44:11;;;;;;;3.30;2.80;;;;;16.70;99173.00;;;;16541793;28;20211;-49
2022/10/02 06:52:22;;;;;;;7.27;5.70;;;;;17.10;99147.00;;;;16539484;28;20192;-48
2022/10/02 07:00:25;;;;;;;7.90;4.00;;;;;16.50;99157.00;;;;16538167;28;20242;-48
2022/10/02 07:08:36;;;;;;;9.87;4.67;;;;;16.50;99161.00;;;;16562977;28;20254;-48
2022/10/02 07:17:04;;;;;;;5.77;3.60;;;;;16.60;99153.00;;;;16571121;28;20242;-48
2022/10/02 07:25:23;;;;;;;7.40;4.40;;;;;16.00;99139.00;;;;16570147;28;20218;-47
2022/10/02 07:33:35;;;;;;;10.37;5.97;;;;;16.00;99121.00;;;;16570151;28;20742;-48
2022/10/02 07:42:18;;;;;;;6.23;5.40;;;;;15.70;99129.00;;;;16555578;28;20216;-48
2022/10/02 07:50:27;;;;;;;5.07;4.07;;;;;16.40;99125.00;;;;16538312;28;20216;-48
2022/10/02 07:58:37;;;;;;;9.20;5.17;;;;;16.70;99118.00;;;;16556543;28;20242;-49
2022/10/02 08:06:40;;;;;;;12.77;5.37;;;;;17.10;99114.00;;;;16568144;28;20226;-50
2022/10/02 08:14:44;;;;;;;7.87;4.03;;;;;17.20;99109.00;;;;16572396;28;20581;-50
2022/10/02 08:22:50;;;;;;;8.63;4.80;;;;;17.30;99124.00;;;;16578935;28;20675;-50
2022/10/02 08:30:54;;;;;;;6.97;4.30;;;;;17.90;99115.00;;;;16571243;28;20206;-51
2022/10/02 08:39:09;;;;;;;11.10;4.77;;;;;19.30;99096.00;;;;16567434;28;20235;-51
2022/10/02 08:47:56;;;;;;;6.40;3.47;;;;;19.40;99081.00;;;;16595550;28;20667;-50
2022/10/02 08:56:08;;;;;;;6.93;3.67;;;;;19.90;99077.00;;;;16572093;28;20224;-50
2022/10/02 09:04:48;;;;;;;11.77;3.20;;;;;20.30;99067.00;;;;16552563;28;20220;-51
2022/10/02 09:13:26;;;;;;;5.07;2.37;;;;;20.20;99040.00;;;;16577597;28;20240;-50
2022/10/02 09:21:58;;;;;;;24.93;4.30;;;;;20.50;99038.00;;;;16582014;28;20232;-51
2022/10/02 09:30:21;;;;;;;6.83;3.20;;;;;20.50;99036.00;;;;16555228;28;20731;-50
2022/10/02 09:38:53;;;;;;;7.57;3.20;;;;;20.70;99025.00;;;;16547000;28;20234;-50
2022/10/02 09:47:17;;;;;;;13.00;4.70;;;;;21.20;99016.00;;;;16541772;28;20320;-50
2022/10/02 09:55:50;;;;;;;6.93;3.73;;;;;20.00;99032.00;;;;16537573;28;20720;-50
2022/10/02 10:04:16;;;;;;;6.93;3.63;;;;;19.50;99048.00;;;;16545709;28;20305;-49
2022/10/02 10:12:58;;;;;;;5.83;3.73;;;;;17.60;99067.00;;;;16553761;28;20210;-48
2022/10/02 10:21:31;;;;;;;3.03;2.37;;;;;16.80;99088.00;;;;16572384;28;20314;-48
2022/10/02 10:30:02;;;;;;;3.80;2.60;;;;;16.60;99114.00;;;;16561963;28;20241;-48
2022/10/02 10:38:39;;;;;;;2.60;2.13;;;;;17.00;99097.00;;;;16555716;28;20223;-48
2022/10/02 10:46:59;;;;;;;3.30;2.30;;;;;16.70;99097.00;;;;16536082;28;20667;-48
2022/10/02 10:55:12;;;;;;;4.53;3.07;;;;;16.80;99104.00;;;;16542887;28;20224;-47
2022/10/02 11:03:44;;;;;;;2.50;2.30;;;;;16.80;99106.00;;;;16545740;28;20224;-48
2022/10/02 11:12:08;;;;;;;3.87;2.37;;;;;17.10;99110.00;;;;16553259;28;20234;-48
2022/10/02 11:20:23;;;;;;;2.50;2.20;;;;;17.20;99120.00;;;;16549860;28;20233;-48
2022/10/02 11:28:50;;;;;;;2.30;2.00;;;;;16.70;99111.00;;;;16543265;28;20262;-48
2022/10/02 11:37:12;;;;;;;1.80;1.70;;;;;17.10;99110.00;;;;16551534;28;20778;-47
2022/10/02 11:45:40;;;;;;;1.33;1.23;;;;;17.60;99092.00;;;;16564332;28;20233;-49
2022/10/02 11:53:56;;;;;;;2.30;2.10;;;;;16.90;99114.00;;;;16578651;28;20589;-49
2022/10/02 12:02:03;;;;;;;1.57;1.47;;;;;16.60;99111.00;;;;16581361;28;20357;-48
2022/10/02 12:10:19;;;;;;;1.83;1.60;;;;;16.80;99112.00;;;;16581457;28;20285;-47
2022/10/02 12:18:31;;;;;;;1.67;1.57;;;;;17.30;99087.00;;;;16586370;28;20220;-47
2022/10/02 12:27:03;;;;;;;1.50;1.40;;;;;17.00;99092.00;;;;16582002;28;20231;-48
2022/10/02 12:35:20;;;;;;;1.47;1.37;;;;;17.00;99085.00;;;;16584158;28;20227;-46
2022/10/02 12:43:52;;;;;;;1.80;1.53;;;;;16.40;99117.00;;;;16568481;28;20223;-47
2022/10/02 12:52:28;;;;;;;2.20;1.90;;;;;16.60;99115.00;;;;16564419;28;20714;-47
2022/10/02 13:00:48;;;;;;;4.00;2.47;;;;;18.30;99106.00;;;;16557634;28;20231;-49
2022/10/02 13:09:02;;;;;;;3.20;2.47;;;;;17.60;99107.00;;;;16564731;28;20215;-48
2022/10/02 13:17:14;;;;;;;2.83;2.03;;;;;17.90;99112.00;;;;16576754;28;20309;-49
2022/10/02 13:25:33;;;;;;;3.57;2.00;;;;;17.10;99128.00;;;;16562135;28;20231;-48
2022/10/02 13:33:55;;;;;;;2.17;2.00;;;;;17.30;99133.00;;;;16572737;28;20583;-48
2022/10/02 13:42:12;;;;;;;2.37;2.17;;;;;17.70;99107.00;;;;16573177;28;20223;-49
2022/10/02 13:50:39;;;;;;;2.40;1.60;;;;;18.20;99113.00;;;;16572294;28;20216;-48
2022/10/02 13:59:05;;;;;;;1.27;1.17;;;;;17.30;99110.00;;;;16560546;28;20234;-47
2022/10/02 14:07:29;;;;;;;1.40;1.30;;;;;16.60;99132.00;;;;16549292;28;20223;-48
2022/10/02 14:15:41;;;;;;;1.80;1.70;;;;;16.40;99136.00;;;;16562307;28;20234;-48
2022/10/02 14:24:00;;;;;;;1.60;1.40;;;;;16.40;99134.00;;;;16560852;28;20254;-48
2022/10/02 14:32:11;;;;;;;1.43;1.33;;;;;16.60;99123.00;;;;16551058;28;20701;-48
2022/10/02 14:40:17;;;;;;;2.07;1.87;;;;;16.60;99113.00;;;;16569381;28;20227;-48
2022/10/02 14:48:29;;;;;;;1.80;1.70;;;;;16.70;99113.00;;;;16572591;28;20227;-46
2022/10/02 14:57:14;;;;;;;1.20;1.10;;;;;16.70;99098.00;;;;16562642;28;20238;-47
2022/10/02 15:05:35;;;;;;;1.70;1.60;;;;;16.90;99118.00;;;;16562615;28;20235;-46
2022/10/02 15:13:43;;;;;;;1.70;1.43;;;;;16.40;99132.00;;;;16553188;28;20236;-49
2022/10/02 15:21:52;;;;;;;2.53;2.30;;;;;16.20;99152.00;;;;16539112;28;20307;-48
2022/10/02 15:30:14;;;;;;;2.67;1.77;;;;;16.50;99154.00;;;;16563897;28;20251;-48
2022/10/02 15:38:48;;;;;;;1.40;1.30;;;;;16.30;99180.00;;;;16560551;28;20235;-48
2022/10/02 15:46:55;;;;;;;1.60;1.50;;;;;16.80;99186.00;;;;16580223;28;20348;-49
2022/10/02 15:55:10;;;;;;;3.67;3.17;;;;;16.50;99182.00;;;;16574305;28;20254;-48
2022/10/02 16:03:16;;;;;;;2.00;1.80;;;;;16.60;99164.00;;;;16571812;28;20262;-49
2022/10/02 16:11:52;;;;;;;431.80;238.53;;;;;18.10;99177.00;;;;16566455;28;20760;-49
2022/10/02 16:20:23;;;;;;;109.93;63.60;;;;;19.90;99163.00;;;;16564227;28;20794;-47
2022/10/02 16:28:35;;;;;;;2.77;2.17;;;;;17.90;99184.00;;;;16570546;28;20706;-48
2022/10/02 16:36:44;;;;;;;3.87;2.17;;;;;17.30;99187.00;;;;16566329;28;20224;-47
2022/10/02 16:45:05;;;;;;;2.30;1.70;;;;;17.40;99186.00;;;;16557763;28;20217;-47
2022/10/02 16:53:11;;;;;;;2.60;2.07;;;;;17.20;99190.00;;;;16549480;28;20206;-47
2022/10/02 17:01:24;;;;;;;3.57;3.27;;;;;16.40;99225.00;;;;16553358;28;20238;-47
2022/10/02 17:09:33;;;;;;;5.70;4.43;;;;;15.80;99276.00;;;;16564256;28;20219;-47
2022/10/02 17:17:53;;;;;;;5.27;4.87;;;;;15.80;99299.00;;;;16551132;28;20262;-48
2022/10/02 17:26:01;;;;;;;3.10;2.90;;;;;16.10;99289.00;;;;16538864;28;20239;-47
2022/10/02 17:34:19;;;;;;;4.93;4.43;;;;;16.90;99310.00;;;;16540758;28;20261;-48
2022/10/02 17:42:34;;;;;;;11.37;8.10;;;;;16.70;99296.00;;;;16549993;28;20307;-48
2022/10/02 17:50:50;;;;;;;4.70;4.30;;;;;16.10;99313.00;;;;16576137;28;20237;-47
2022/10/02 17:59:19;;;;;;;3.90;3.40;;;;;15.60;99333.00;;;;16551440;28;20243;-46
2022/10/02 18:07:34;;;;;;;4.30;3.90;;;;;15.50;99338.00;;;;16547852;28;20850;-47
2022/10/02 18:15:59;;;;;;;5.37;4.67;;;;;15.60;99334.00;;;;16564520;28;20822;-47
2022/10/02 18:24:30;;;;;;;4.87;4.37;;;;;15.70;99348.00;;;;16568120;28;20242;-47
2022/10/02 18:33:17;;;;;;;14.70;10.80;;;;;16.00;99341.00;;;;16560277;28;20203;-47
2022/10/02 18:41:39;;;;;;;6.50;5.83;;;;;15.50;99345.00;;;;16550669;28;20840;-47
2022/10/02 18:49:51;;;;;;;4.30;3.90;;;;;16.20;99355.00;;;;16549420;28;20216;-48
2022/10/02 18:58:06;;;;;;;3.47;2.63;;;;;15.50;99383.00;;;;16540266;28;20620;-47
2022/10/02 19:06:13;;;;;;;4.10;3.80;;;;;15.40;99403.00;;;;16533118;28;20231;-47
2022/10/02 19:14:24;;;;;;;6.47;4.50;;;;;15.60;99402.00;;;;16541785;28;20255;-47
2022/10/02 19:22:29;;;;;;;6.57;5.20;;;;;16.20;99374.00;;;;16536139;28;20362;-47
2022/10/02 19:30:33;;;;;;;5.53;5.03;;;;;16.70;99394.00;;;;16534582;28;20637;-47
2022/10/02 19:38:37;;;;;;;4.33;3.93;;;;;16.10;99396.00;;;;16536687;28;20591;-47
2022/10/02 19:46:44;;;;;;;3.77;3.50;;;;;17.10;99400.00;;;;16565521;28;20215;-47
2022/10/02 19:54:46;;;;;;;5.10;4.60;;;;;15.90;99423.00;;;;16569700;28;20239;-48
2022/10/02 20:02:53;;;;;;;9.43;8.53;;;;;15.50;99440.00;;;;16551860;28;20389;-47
2022/10/02 20:10:59;;;;;;;6.20;5.47;;;;;15.60;99446.00;;;;16554321;28;20202;-47
2022/10/02 20:19:03;;;;;;;5.00;4.33;;;;;15.70;99455.00;;;;16562306;28;20226;-47
2022/10/02 20:27:09;;;;;;;5.40;4.37;;;;;15.70;99468.00;;;;16559311;28;20300;-47
2022/10/02 20:35:18;;;;;;;5.83;5.40;;;;;15.50;99484.00;;;;16561539;28;20839;-47
2022/10/02 20:43:23;;;;;;;5.00;4.60;;;;;15.60;99496.00;;;;16567879;28;20231;-47
2022/10/02 20:51:40;;;;;;;5.57;5.07;;;;;15.60;99510.00;;;;16562964;28;20199;-47
2022/10/02 21:00:15;;;;;;;7.00;6.40;;;;;15.80;99526.00;;;;16558095;28;20234;-47
2022/10/02 21:08:46;;;;;;;3.90;3.10;;;;;15.60;99532.00;;;;16568292;28;20226;-48
2022/10/02 21:17:12;;;;;;;2.53;2.33;;;;;15.40;99557.00;;;;16580211;28;20218;-47
2022/10/02 21:25:58;;;;;;;3.17;2.97;;;;;15.30;99575.00;;;;16581400;28;20300;-48
2022/10/02 21:34:11;;;;;;;3.30;3.10;;;;;15.80;99574.00;;;;16524340;28;20258;-48
2022/10/02 21:42:49;;;;;;;3.27;3.03;;;;;15.80;99579.00;;;;16580898;28;20293;-48
2022/10/02 21:51:09;;;;;;;3.20;2.80;;;;;15.20;99583.00;;;;16546624;28;20207;-47
2022/10/02 21:59:49;;;;;;;4.00;3.60;;;;;15.40;99583.00;;;;16584017;28;20240;-47
2022/10/02 22:07:59;;;;;;;5.00;3.67;;;;;15.60;99593.00;;;;16539774;28;20618;-48
2022/10/02 22:16:19;;;;;;;4.47;4.07;;;;;15.50;99597.00;;;;16574893;28;20638;-48
2022/10/02 22:24:40;;;;;;;4.63;3.23;;;;;15.40;99605.00;;;;16574374;28;20237;-47
2022/10/02 22:33:12;;;;;;;4.93;4.53;;;;;15.30;99602.00;;;;16567195;28;20206;-48
2022/10/02 22:41:24;;;;;;;4.00;3.63;;;;;15.20;99617.00;;;;16568300;28;20273;-47
2022/10/02 22:49:31;;;;;;;4.87;4.47;;;;;15.10;99625.00;;;;16569868;28;20647;-48
2022/10/02 22:57:39;;;;;;;5.17;4.30;;;;;15.10;99622.00;;;;16575200;28;20379;-47
2022/10/02 23:05:45;;;;;;;5.47;4.70;;;;;15.10;99636.00;;;;16561472;28;20227;-48
2022/10/02 23:13:52;;;;;;;11.60;10.60;;;;;15.50;99631.00;;;;16564656;28;20222;-48
2022/10/02 23:21:57;;;;;;;5.33;4.93;;;;;15.30;99636.00;;;;16575306;28;20228;-48
2022/10/02 23:30:04;;;;;;;4.87;4.37;;;;;15.30;99635.00;;;;16564028;28;20230;-48
2022/10/02 23:38:14;;;;;;;4.03;3.70;;;;;14.80;99636.00;;;;16563528;28;20237;-48
2022/10/02 23:46:24;;;;;;;3.60;3.30;;;;;14.20;99657.00;;;;16583941;28;20206;-47
2022/10/02 23:54:44;;;;;;;4.53;4.07;;;;;14.10;99655.00;;;;16590962;28;20304;-47
